Time;durP1;ratioP1;P1;durP2;ratioP2;P2;SDS_P1;SDS_P2;PMS_P1;PMS_P2;Temp;Humidity;BMP_temperature;BMP_pressure;BME280_temperature;BME280_humidity;BME280_pressure;Samples;Min_cycle;Max_cycle;Signal;HPM_P1;HPM_P2
2022/03/24 02:19:59;;;;;;;;;45.00;40.00;;;;;12.27;79.30;102396.28;6321904;22;45760;-93
2022/03/24 02:22:26;;;;;;;;;43.50;35.50;;;;;12.37;78.96;102411.00;6359807;22;45474;-93
2022/03/24 02:24:52;;;;;;;;;53.50;42.25;;;;;12.29;79.63;102406.13;6361342;22;45280;-92
2022/03/24 02:27:18;;;;;;;;;49.75;39.75;;;;;12.26;79.42;102405.94;6359205;22;45418;-93
2022/03/24 02:29:43;;;;;;;;;39.25;34.50;;;;;12.21;79.32;102399.47;6360817;22;47474;-92
2022/03/24 02:32:11;;;;;;;;;36.25;33.25;;;;;12.22;79.29;102406.53;6359895;22;45373;-93
2022/03/24 02:34:37;;;;;;;;;50.00;41.25;;;;;12.14;79.45;102408.66;6359081;22;45299;-93
2022/03/24 02:37:13;;;;;;;;;46.50;40.25;;;;;12.25;79.68;102408.44;6359759;22;45276;-93
2022/03/24 02:39:44;;;;;;;;;42.75;38.00;;;;;12.22;80.36;102418.78;6359507;22;46851;-93
2022/03/24 02:42:16;;;;;;;;;50.25;40.50;;;;;12.20;80.46;102415.13;6335290;22;45220;-93
2022/03/24 07:33:35;;;;;;;;;51.00;40.25;;;;;13.58;89.53;102432.47;6330630;22;45207;-91
2022/03/24 07:36:02;;;;;;;;;38.50;36.75;;;;;13.71;88.40;102434.13;6331895;22;45442;-91
2022/03/24 07:38:27;;;;;;;;;41.25;36.25;;;;;13.80;87.62;102440.78;6340505;22;47076;-91
2022/03/24 07:40:53;;;;;;;;;45.25;39.25;;;;;13.88;87.68;102442.16;6357950;22;45351;-90
2022/03/24 07:43:18;;;;;;;;;42.75;37.25;;;;;13.95;86.81;102432.84;6358537;22;45362;-91
2022/03/24 07:45:43;;;;;;;;;40.75;37.00;;;;;14.04;86.07;102435.13;6333411;22;45469;-91
2022/03/24 07:48:12;;;;;;;;;39.25;35.00;;;;;14.31;86.55;102450.72;6333862;22;46184;-91
2022/03/24 07:50:40;;;;;;;;;41.50;34.75;;;;;14.28;86.13;102434.69;6330724;22;45523;-91
2022/03/24 07:53:19;;;;;;;;;40.00;36.00;;;;;14.49;85.97;102436.75;6333310;22;45371;-91
2022/03/24 07:55:46;;;;;;;;;40.00;36.75;;;;;14.61;85.66;102455.06;6332837;22;45411;-90
2022/03/24 07:58:16;;;;;;;;;43.50;35.75;;;;;14.63;84.76;102440.19;6361792;22;47475;-91
2022/03/24 08:00:45;;;;;;;;;38.00;34.50;;;;;14.71;84.19;102446.81;6337243;22;45430;-90
2022/03/24 08:03:12;;;;;;;;;46.00;37.25;;;;;14.80;84.26;102443.75;6358076;22;45225;-90
2022/03/24 08:05:37;;;;;;;;;43.25;35.75;;;;;14.91;83.49;102441.75;6332123;22;45416;-90
2022/03/24 08:08:10;;;;;;;;;49.50;36.25;;;;;15.08;83.51;102450.59;6330542;22;48161;-90
2022/03/24 08:10:41;;;;;;;;;46.25;37.75;;;;;15.18;82.82;102449.34;6333041;22;45241;-91
2022/03/24 08:13:06;;;;;;;;;45.75;35.25;;;;;15.17;82.67;102444.91;6359223;22;45376;-91
2022/03/24 08:15:34;;;;;;;;;32.50;30.50;;;;;15.18;81.66;102438.75;6357003;22;45383;-90
2022/03/24 08:18:00;;;;;;;;;39.75;37.25;;;;;15.28;81.63;102440.16;6333111;22;45373;-87
2022/03/24 08:20:25;;;;;;;;;45.75;36.00;;;;;15.39;80.87;102451.31;6330429;22;45325;-88
2022/03/24 08:22:52;;;;;;;;;43.25;36.75;;;;;15.48;80.31;102452.63;6332776;22;45154;-89
2022/03/24 08:25:18;;;;;;;;;45.25;37.25;;;;;15.50;80.28;102445.69;6330592;22;45270;-89
2022/03/24 08:27:43;;;;;;;;;40.25;35.50;;;;;15.56;80.49;102447.75;6357713;22;47118;-89
2022/03/24 08:30:09;;;;;;;;;46.00;37.00;;;;;15.69;80.49;102451.94;6330455;22;45225;-91
2022/03/24 08:32:34;;;;;;;;;53.25;40.25;;;;;15.78;80.20;102457.69;6326803;22;45363;-90
2022/03/24 08:35:00;;;;;;;;;44.00;35.50;;;;;15.84;79.97;102457.09;6328663;22;45440;-89
2022/03/24 08:37:25;;;;;;;;;46.00;38.25;;;;;15.95;79.47;102460.31;6329296;22;47857;-93
2022/03/24 08:39:50;;;;;;;;;46.75;38.00;;;;;16.05;79.62;102456.41;6329485;22;45337;-91
2022/03/24 08:42:16;;;;;;;;;44.75;37.75;;;;;16.13;79.40;102468.28;6332478;22;45229;-90
2022/03/24 08:44:41;;;;;;;;;49.00;38.00;;;;;16.23;79.26;102466.09;6331667;22;48977;-89
2022/03/24 08:47:07;;;;;;;;;43.25;36.50;;;;;16.30;79.40;102465.56;6331633;22;46253;-90
2022/03/24 08:49:32;;;;;;;;;43.25;38.00;;;;;16.38;79.14;102465.94;6328837;22;45632;-91
2022/03/24 08:51:58;;;;;;;;;49.50;35.25;;;;;16.49;78.06;102462.06;6332487;22;45343;-90
2022/03/24 08:54:24;;;;;;;;;38.25;35.00;;;;;16.56;78.21;102467.69;6357143;22;45298;-91
2022/03/24 08:56:50;;;;;;;;;46.00;37.50;;;;;16.67;78.12;102476.16;6330551;22;46924;-90
2022/03/24 08:59:16;;;;;;;;;44.75;36.50;;;;;16.75;77.45;102474.78;6330028;22;45851;-91
2022/03/24 09:01:43;;;;;;;;;53.25;37.50;;;;;16.86;76.48;102478.84;6333500;22;45331;-92
2022/03/24 09:04:08;;;;;;;;;36.25;34.00;;;;;16.91;77.15;102479.03;6331533;22;45381;-91
2022/03/24 09:06:34;;;;;;;;;40.50;36.75;;;;;17.00;77.38;102481.22;6331470;22;47105;-91
2022/03/24 09:08:59;;;;;;;;;41.00;33.75;;;;;17.10;76.93;102477.25;6330059;22;45309;-93
2022/03/24 09:11:25;;;;;;;;;42.75;34.75;;;;;17.16;76.68;102476.69;6332778;22;45256;-93
2022/03/24 09:13:51;;;;;;;;;40.75;33.25;;;;;17.29;76.06;102483.44;6329421;22;45401;-93
2022/03/24 09:16:17;;;;;;;;;44.50;33.75;;;;;17.39;76.55;102475.06;6355357;22;46477;-93
2022/03/24 09:18:42;;;;;;;;;41.25;31.50;;;;;17.49;75.98;102476.38;6332135;22;45304;-93
2022/03/24 09:21:09;;;;;;;;;44.25;38.75;;;;;17.59;76.10;102477.69;6330068;22;45566;-95
2022/03/24 09:23:35;;;;;;;;;40.75;33.50;;;;;17.69;75.75;102470.13;6333597;22;45269;-94
2022/03/24 09:26:01;;;;;;;;;50.25;36.75;;;;;17.78;74.99;102467.84;6361145;22;46814;-93
2022/03/24 09:28:27;;;;;;;;;45.50;36.75;;;;;17.87;75.40;102464.69;6338446;22;45220;-93
2022/03/24 09:30:55;;;;;;;;;47.75;35.50;;;;;18.03;75.62;102475.97;6361244;22;45300;-93
2022/03/24 09:33:21;;;;;;;;;37.50;32.75;;;;;18.10;74.72;102467.41;6358804;22;45340;-93
2022/03/24 09:35:47;;;;;;;;;48.00;36.75;;;;;18.18;73.81;102463.31;6332556;22;46341;-93
2022/03/24 09:38:12;;;;;;;;;50.75;39.25;;;;;18.30;73.75;102473.56;6331856;22;45415;-93
2022/03/24 09:40:39;;;;;;;;;50.75;36.00;;;;;18.46;73.90;102470.63;6334098;22;45502;-93
2022/03/24 09:43:04;;;;;;;;;43.50;37.75;;;;;18.48;73.84;102464.53;6334754;22;45347;-93
2022/03/24 09:45:30;;;;;;;;;39.25;35.25;;;;;18.58;73.73;102468.44;6333645;22;46540;-93
2022/03/24 09:47:56;;;;;;;;;49.25;38.75;;;;;18.67;73.46;102467.94;6334296;22;45276;-94
2022/03/24 09:50:24;;;;;;;;;55.50;39.25;;;;;18.73;73.48;102468.19;6356831;22;45306;-95
2022/03/24 09:52:51;;;;;;;;;48.50;38.25;;;;;18.80;72.43;102461.34;6358914;22;45391;-94
2022/03/24 09:55:17;;;;;;;;;53.00;39.25;;;;;18.90;73.36;102461.69;6333350;22;46117;-93
2022/03/24 09:57:43;;;;;;;;;45.50;36.75;;;;;18.95;73.01;102457.44;6331464;22;45353;-93
2022/03/24 10:00:10;;;;;;;;;43.25;35.75;;;;;19.01;73.02;102456.78;6331181;22;45414;-93
2022/03/24 10:02:35;;;;;;;;;41.50;36.00;;;;;19.08;72.96;102456.16;6358852;22;45472;-93
2022/03/24 10:05:01;;;;;;;;;50.50;39.75;;;;;19.17;72.08;102453.81;6356360;22;47360;-94
2022/03/24 10:07:31;;;;;;;;;45.50;36.25;;;;;19.24;72.20;102455.00;6334600;22;45241;-93
2022/03/24 10:09:57;;;;;;;;;52.25;38.50;;;;;19.33;72.48;102457.06;6333601;22;45319;-93
2022/03/24 10:12:26;;;;;;;;;49.00;40.50;;;;;19.40;72.78;102455.56;6333408;22;45564;-94
2022/03/24 10:14:57;;;;;;;;;54.00;37.50;;;;;19.57;71.90;102456.16;6357962;22;48483;-93
2022/03/24 10:17:23;;;;;;;;;45.75;38.50;;;;;19.56;72.10;102458.78;6358413;22;45334;-93
2022/03/24 10:19:57;;;;;;;;;46.75;36.25;;;;;19.76;71.70;102459.47;6332006;22;45279;-93
2022/03/24 10:22:23;;;;;;;;;45.25;36.75;;;;;19.73;71.17;102454.94;6335072;22;45382;-93
2022/03/24 10:24:49;;;;;;;;;50.00;36.00;;;;;19.78;71.90;102460.41;6358028;22;46428;-93
2022/03/24 10:27:20;;;;;;;;;53.25;39.75;;;;;19.99;71.50;102456.69;6334373;22;45365;-93
2022/03/24 10:29:49;;;;;;;;;47.25;39.50;;;;;19.99;71.16;102459.34;6336656;22;45292;-92
2022/03/24 10:32:14;;;;;;;;;53.75;40.00;;;;;20.09;70.56;102457.88;6365888;22;45312;-93
2022/03/24 10:34:42;;;;;;;;;43.50;35.25;;;;;20.21;69.97;102454.72;6360771;22;47015;-94
2022/03/24 10:37:13;;;;;;;;;48.50;38.75;;;;;20.31;70.17;102447.94;6338259;22;45498;-92
2022/03/24 10:39:55;;;;;;;;;45.75;36.25;;;;;20.43;69.87;102450.09;6331264;22;45269;-93
2022/03/24 10:42:23;;;;;;;;;49.50;39.00;;;;;20.40;70.30;102440.25;6332693;22;45839;-93
2022/03/24 10:45:10;;;;;;;;;51.00;38.75;;;;;20.65;69.86;102443.66;6358238;22;48078;-92
2022/03/24 10:47:37;;;;;;;;;46.75;36.00;;;;;20.61;69.80;102447.13;6334290;22;45302;-93
2022/03/24 10:50:33;;;;;;;;;35.25;32.00;;;;;20.81;69.01;102443.22;6330991;22;45356;-93
2022/03/24 10:53:08;;;;;;;;;47.50;35.00;;;;;20.91;68.60;102442.63;6332290;22;45297;-93
2022/03/24 10:55:45;;;;;;;;;47.75;36.50;;;;;21.03;68.48;102446.56;6334283;22;46132;-93
2022/03/24 10:58:29;;;;;;;;;47.50;37.25;;;;;21.07;67.87;102443.13;6341609;22;45220;-92
2022/03/24 11:00:58;;;;;;;;;48.00;38.00;;;;;21.17;68.38;102445.19;6336386;22;45291;-92
2022/03/24 11:03:23;;;;;;;;;48.00;35.00;;;;;21.21;68.59;102444.41;6357989;22;45380;-93
2022/03/24 11:05:49;;;;;;;;;45.00;35.50;;;;;21.36;67.87;102434.13;6331768;22;46372;-93
2022/03/24 11:08:17;;;;;;;;;48.50;38.50;;;;;21.53;67.88;102435.47;6333238;22;45340;-93
2022/03/24 11:10:48;;;;;;;;;48.75;38.50;;;;;21.70;67.85;102434.13;6333997;22;45322;-94
2022/03/24 11:13:23;;;;;;;;;46.50;33.00;;;;;21.85;67.74;102437.16;6359405;22;45913;-94
2022/03/24 11:15:51;;;;;;;;;46.75;35.50;;;;;21.89;66.86;102435.50;6337488;22;45504;-93
2022/03/24 11:18:16;;;;;;;;;46.50;35.25;;;;;21.91;66.52;102423.06;6333153;22;45358;-94
2022/03/24 11:20:43;;;;;;;;;53.00;39.25;;;;;22.05;66.55;102423.41;6356386;22;45580;-92
2022/03/24 11:23:31;;;;;;;;;48.50;36.00;;;;;22.26;66.48;102422.13;6358456;22;45467;-94
2022/03/24 11:25:59;;;;;;;;;41.50;34.00;;;;;22.38;66.11;102417.91;6331621;22;47162;-93
2022/03/24 11:28:25;;;;;;;;;52.00;37.50;;;;;22.40;65.96;102414.41;6332051;22;45255;-93
2022/03/24 11:30:52;;;;;;;;;33.50;30.00;;;;;22.49;65.49;102410.13;6333674;22;45318;-93
2022/03/24 11:33:17;;;;;;;;;37.00;33.50;;;;;22.59;64.83;102416.59;6357875;22;45366;-93
2022/03/24 11:35:43;;;;;;;;;45.75;38.75;;;;;22.68;64.57;102414.09;6332213;22;46295;-94
2022/03/24 11:38:09;;;;;;;;;42.75;32.00;;;;;22.81;63.97;102406.34;6333589;22;45430;-94
2022/03/24 11:40:36;;;;;;;;;36.50;33.75;;;;;22.94;64.40;102412.84;6357652;22;45162;-93
2022/03/24 11:43:13;;;;;;;;;41.75;34.00;;;;;23.11;63.97;102402.50;6336397;22;45365;-93
2022/03/24 11:45:49;;;;;;;;;43.00;35.00;;;;;23.22;63.05;102398.22;6334898;22;46144;-94
2022/03/24 11:48:16;;;;;;;;;46.75;36.00;;;;;23.32;63.50;102399.31;6331268;22;45547;-95
2022/03/24 11:50:50;;;;;;;;;36.75;30.50;;;;;23.57;61.99;102398.88;6305013;22;45479;-94
2022/03/24 11:53:19;;;;;;;;;39.50;33.25;;;;;23.61;61.64;102398.06;6333523;22;45472;-96
2022/03/24 11:56:03;;;;;;;;;38.25;33.00;;;;;23.88;62.03;102401.16;6335229;22;45958;-95
2022/03/24 11:58:32;;;;;;;;;40.00;31.50;;;;;23.93;60.95;102391.41;6337856;22;45268;-95
2022/03/24 12:01:17;;;;;;;;;38.50;32.25;;;;;24.19;61.31;102388.22;6333924;22;45306;-89
2022/03/24 12:03:56;;;;;;;;;28.67;26.33;;;;;24.38;60.44;102382.25;6332765;22;45395;-94
2022/03/24 12:06:44;;;;;;;;;38.50;31.00;;;;;24.60;60.43;102377.16;6334397;22;45534;-95
2022/03/24 12:09:12;;;;;;;;;38.75;28.50;;;;;24.80;60.45;102377.38;6331254;22;45336;-95
2022/03/24 12:11:47;;;;;;;;;36.00;30.25;;;;;25.13;60.65;102372.38;6339132;22;45317;-96
2022/03/24 12:14:36;;;;;;;;;28.50;25.75;;;;;25.40;59.55;102370.88;6369329;22;45004;-96
2022/03/24 12:17:14;;;;;;;;;38.00;31.33;;;;;25.69;58.96;102368.41;6344028;22;47075;-96
2022/03/24 12:19:40;;;;;;;;;30.00;27.25;;;;;25.96;59.54;102361.44;6369776;22;45323;-96
2022/03/24 12:22:24;;;;;;;;;28.25;23.50;;;;;26.53;58.63;102354.56;6346452;22;45238;-96
2022/03/24 12:24:50;;;;;;;;;30.33;23.33;;;;;26.83;57.76;102351.94;6343806;22;45222;-96
2022/03/24 12:27:16;;;;;;;;;32.67;27.67;;;;;27.20;56.61;102354.75;6352600;22;47341;-96
2022/03/24 12:29:41;;;;;;;;;38.75;32.00;;;;;27.61;57.30;102357.44;6346851;22;45333;-96
2022/03/24 12:32:11;;;;;;;;;31.25;29.00;;;;;28.09;56.76;102351.06;6367998;22;45296;-96
2022/03/24 12:34:39;;;;;;;;;30.25;25.75;;;;;28.63;54.80;102342.78;6347296;22;45059;-96
2022/03/24 12:37:30;;;;;;;;;39.00;30.00;;;;;29.21;54.59;102335.19;6347563;22;46460;-96
2022/03/24 12:40:11;;;;;;;;;30.00;25.25;;;;;30.53;54.83;102332.91;6352594;22;45979;-96
2022/03/24 12:42:50;;;;;;;;;31.00;25.00;;;;;33.13;54.81;102337.94;6357948;22;44748;-96
2022/03/24 12:45:22;;;;;;;;;25.00;21.00;;;;;36.40;53.42;102330.34;6384631;22;44777;-96
2022/03/24 12:47:47;;;;;;;;;28.67;26.33;;;;;38.94;49.66;102337.41;6358084;22;46339;-96
2022/03/24 12:50:15;;;;;;;;;34.33;29.00;;;;;41.43;49.34;102331.81;6359805;22;44663;-96
2022/03/24 12:52:59;;;;;;;;;27.00;25.00;;;;;44.05;47.71;102329.09;6358643;22;44785;-96
2022/03/24 12:55:35;;;;;;;;;26.33;25.67;;;;;46.28;44.92;102331.22;6386501;22;44821;-96
2022/03/24 12:58:04;;;;;;;;;31.67;25.33;;;;;47.86;42.27;102333.38;6342397;22;46412;-96
2022/03/24 13:00:33;;;;;;;;;33.00;28.00;;;;;49.16;40.00;102323.16;6348773;22;45286;-96
2022/03/24 13:03:04;;;;;;;;;34.67;27.00;;;;;50.20;39.29;102311.09;6349639;22;45265;-96
2022/03/24 13:05:32;;;;;;;;;30.33;27.33;;;;;51.03;35.83;102312.88;6320480;22;45227;-96
2022/03/24 13:08:02;;;;;;;;;23.00;20.00;;;;;51.46;32.96;102303.69;6313256;22;45437;-96
2022/03/24 13:10:31;;;;;;;;;24.67;21.00;;;;;51.62;31.16;102319.69;6315949;22;45271;-96
2022/03/24 13:13:00;;;;;;;;;21.67;20.00;;;;;52.11;32.51;102317.22;6352810;22;45248;-96
2022/03/24 13:15:35;;;;;;;;;24.67;21.67;;;;;52.92;31.48;102315.69;6328691;22;44804;-96
2022/03/24 13:18:04;;;;;;;;;26.33;26.33;;;;;53.31;31.10;102299.13;6258967;22;45577;-96
2022/03/24 13:20:53;;;;;;;;;29.67;24.00;;;;;53.77;29.29;102297.50;6307042;22;45373;-95
2022/03/24 13:23:21;;;;;;;;;22.33;21.67;;;;;53.72;30.93;102298.06;6308376;22;45333;-96
2022/03/24 13:25:50;;;;;;;;;26.67;25.33;;;;;54.05;29.84;102295.06;6310240;22;45300;-96
2022/03/24 13:28:16;;;;;;;;;26.00;24.33;;;;;53.61;29.03;102299.38;6304630;22;47970;-96
2022/03/24 13:30:43;;;;;;;;;30.00;25.67;;;;;51.61;27.89;102285.25;6312873;22;45230;-96
2022/03/24 13:33:12;;;;;;;;;26.00;25.33;;;;;48.93;27.44;102281.72;6309998;22;45207;-96
2022/03/24 13:35:39;;;;;;;;;27.67;24.33;;;;;46.19;27.63;102280.13;6306109;22;44837;-96
2022/03/24 13:38:10;;;;;;;;;24.33;22.00;;;;;43.67;27.42;102276.50;6314181;22;46927;-96
2022/03/24 13:40:39;;;;;;;;;29.33;22.67;;;;;41.58;29.14;102276.75;6304863;22;45261;-96
2022/03/24 13:43:06;;;;;;;;;31.67;25.33;;;;;40.12;29.61;102271.59;6303177;22;45583;-96
2022/03/24 13:45:33;;;;;;;;;33.00;29.33;;;;;39.82;31.31;102273.25;6326756;22;45391;-95
2022/03/24 13:48:09;;;;;;;;;27.33;21.67;;;;;41.25;31.22;102270.50;6302769;22;46991;-96
2022/03/24 13:50:36;;;;;;;;;32.00;26.33;;;;;43.10;30.96;102276.84;6301024;22;45342;-95
2022/03/24 13:53:26;;;;;;;;;29.00;26.33;;;;;44.77;30.35;102277.56;6300022;22;45242;-96
2022/03/24 13:56:04;;;;;;;;;28.00;27.33;;;;;45.65;30.10;102269.75;6326748;22;45318;-96
2022/03/24 13:58:29;;;;;;;;;25.67;23.67;;;;;46.72;29.78;102260.91;6299953;22;48163;-96
2022/03/24 14:01:03;;;;;;;;;27.33;26.00;;;;;47.82;28.00;102260.44;6328726;22;45848;-96
2022/03/24 14:03:29;;;;;;;;;32.67;26.67;;;;;48.56;27.58;102256.41;6325603;22;45451;-95
2022/03/24 14:06:11;;;;;;;;;18.33;17.33;;;;;49.03;27.97;102264.97;6302989;22;45274;-96
2022/03/24 14:08:38;;;;;;;;;29.00;25.00;;;;;49.30;27.38;102250.22;6302260;22;46735;-94
2022/03/24 14:11:25;;;;;;;;;25.25;24.50;;;;;49.53;27.94;102251.75;6329404;22;45402;-96
2022/03/24 14:13:55;;;;;;;;;29.67;24.33;;;;;50.15;26.88;102240.94;6327316;22;45592;-96
2022/03/24 14:16:28;;;;;;;;;24.67;22.33;;;;;50.11;27.52;102243.16;6330973;22;45510;-90
2022/03/24 14:19:02;;;;;;;;;30.67;25.67;;;;;51.29;27.79;102244.88;6300278;22;45312;-93
2022/03/24 14:21:28;;;;;;;;;24.25;20.25;;;;;52.04;24.56;102238.63;6301821;22;45280;-93
2022/03/24 14:23:54;;;;;;;;;27.67;23.00;;;;;52.52;26.93;102240.75;6301854;22;45415;-93
2022/03/24 14:26:20;;;;;;;;;26.67;23.33;;;;;52.93;27.12;102237.03;6299791;22;45314;-92
2022/03/24 14:28:46;;;;;;;;;27.75;25.75;;;;;53.81;27.21;102237.16;6325230;22;46979;-93
2022/03/24 14:31:17;;;;;;;;;30.25;27.75;;;;;54.84;23.57;102233.09;6300468;22;45373;-94
2022/03/24 14:33:50;;;;;;;;;28.33;26.67;;;;;55.21;23.66;102223.00;6300832;22;45242;-93
2022/03/24 14:36:17;;;;;;;;;28.50;26.50;;;;;55.43;26.42;102226.75;6295934;22;45430;-92
2022/03/24 14:39:21;;;;;;;;;27.50;25.00;;;;;56.16;24.71;102238.13;6296718;22;47311;-92
2022/03/24 14:41:49;;;;;;;;;27.00;26.50;;;;;56.35;24.77;102225.28;6325604;22;45693;-95
2022/03/24 14:44:16;;;;;;;;;25.25;24.25;;;;;56.04;24.29;102223.69;6300109;22;45263;-93
2022/03/24 14:46:42;;;;;;;;;24.00;22.75;;;;;55.13;22.65;102218.34;6325311;22;45228;-93
2022/03/24 14:49:11;;;;;;;;;24.25;20.75;;;;;53.24;23.13;102212.06;6323100;22;47602;-93
2022/03/24 14:51:37;;;;;;;;;28.50;27.50;;;;;50.36;24.60;102209.00;6325519;22;45329;-93
2022/03/24 14:54:05;;;;;;;;;30.75;25.75;;;;;47.56;25.22;102204.44;6300356;22;45371;-93
2022/03/24 14:56:31;;;;;;;;;27.00;25.00;;;;;44.92;26.22;102202.56;6301343;22;45317;-92
2022/03/24 14:58:57;;;;;;;;;24.33;22.33;;;;;42.71;26.66;102203.13;6323923;22;47596;-93
2022/03/24 15:01:25;;;;;;;;;28.00;26.00;;;;;40.83;27.83;102198.75;6301030;22;45277;-92
2022/03/24 15:03:52;;;;;;;;;33.67;27.33;;;;;39.12;28.58;102198.31;6297180;22;45329;-92
2022/03/24 15:06:18;;;;;;;;;28.00;25.67;;;;;37.64;28.88;102196.50;6325242;22;45498;-92
2022/03/24 15:08:47;;;;;;;;;27.67;25.33;;;;;36.34;29.97;102195.69;6299427;22;46017;-92
2022/03/24 15:11:14;;;;;;;;;29.67;27.33;;;;;35.22;30.42;102193.63;6300678;22;45257;-92
2022/03/24 15:13:39;;;;;;;;;32.00;28.67;;;;;34.07;31.28;102185.63;6324300;22;45310;-92
2022/03/24 15:16:05;;;;;;;;;29.67;27.00;;;;;33.16;31.46;102185.56;6300856;22;45359;-90
2022/03/24 15:18:33;;;;;;;;;26.00;24.67;;;;;32.36;32.21;102194.84;6299751;22;45422;-89
2022/03/24 15:20:59;;;;;;;;;26.67;25.00;;;;;31.61;32.86;102187.41;6301602;22;45355;-91
2022/03/24 15:23:24;;;;;;;;;32.67;27.33;;;;;30.98;33.22;102193.09;6301087;22;45364;-90
2022/03/24 15:25:52;;;;;;;;;25.67;23.67;;;;;30.40;34.02;102183.22;6302828;22;45297;-90
2022/03/24 15:28:18;;;;;;;;;22.67;20.67;;;;;29.94;34.19;102189.28;6311912;22;45295;-90
2022/03/24 15:30:44;;;;;;;;;33.67;29.00;;;;;29.50;34.59;102178.09;6336396;22;45058;-91
2022/03/24 15:33:13;;;;;;;;;32.67;27.33;;;;;29.13;34.76;102183.00;6282191;22;45288;-90
2022/03/24 15:35:40;;;;;;;;;26.67;25.00;;;;;28.70;35.71;102182.47;6336036;22;45144;-91
2022/03/24 15:38:08;;;;;;;;;29.00;28.00;;;;;28.33;35.88;102176.41;6332453;22;46189;-90
2022/03/24 15:40:33;;;;;;;;;26.67;26.00;;;;;27.94;36.01;102178.44;6328353;22;45700;-91
2022/03/24 15:43:02;;;;;;;;;32.67;26.67;;;;;27.65;36.78;102189.31;6303893;22;45284;-91
2022/03/24 15:45:29;;;;;;;;;24.67;21.33;;;;;27.42;36.97;102181.34;6327931;22;45367;-91
2022/03/24 15:47:56;;;;;;;;;24.33;24.00;;;;;27.17;37.24;102174.19;6303710;22;45695;-90
2022/03/24 15:50:22;;;;;;;;;25.33;24.00;;;;;26.89;37.66;102183.19;6299156;22;46119;-92
2022/03/24 15:52:48;;;;;;;;;27.33;23.00;;;;;26.67;37.99;102188.56;6302292;22;45381;-91
2022/03/24 15:55:15;;;;;;;;;28.67;22.67;;;;;26.47;38.21;102183.16;6303791;22;45357;-91
2022/03/24 15:57:44;;;;;;;;;25.00;23.00;;;;;26.29;38.50;102182.19;6327960;22;47195;-91
2022/03/24 16:00:10;;;;;;;;;25.33;20.00;;;;;26.06;38.88;102176.75;6298683;22;45290;-91
2022/03/24 16:02:36;;;;;;;;;27.25;26.50;;;;;25.88;38.73;102179.41;6299993;22;45419;-91
2022/03/24 16:05:02;;;;;;;;;27.00;23.00;;;;;25.70;39.33;102176.59;6298266;22;45498;-91
2022/03/24 16:07:27;;;;;;;;;33.75;28.25;;;;;25.57;39.66;102181.91;6325794;22;48320;-91
2022/03/24 16:09:52;;;;;;;;;29.75;28.00;;;;;25.47;39.67;102180.97;6298403;22;48846;-91
2022/03/24 16:12:19;;;;;;;;;32.25;27.00;;;;;25.34;40.49;102174.63;6302937;22;45268;-91
2022/03/24 16:14:44;;;;;;;;;25.67;22.00;;;;;25.25;40.06;102177.28;6301773;22;45809;-90
2022/03/24 16:17:10;;;;;;;;;33.50;29.25;;;;;25.17;40.13;102187.97;6299548;22;48553;-91
2022/03/24 16:19:35;;;;;;;;;23.67;21.00;;;;;25.02;40.35;102180.69;6299871;22;45563;-90
2022/03/24 16:22:00;;;;;;;;;30.50;26.25;;;;;24.93;40.46;102179.69;6299218;22;45376;-90
2022/03/24 16:24:28;;;;;;;;;29.50;25.25;;;;;24.80;40.82;102189.44;6301317;22;50297;-89
2022/03/24 16:26:54;;;;;;;;;33.00;25.00;;;;;24.67;40.67;102185.75;6300012;22;47345;-91
2022/03/24 16:29:19;;;;;;;;;11.75;7.00;;;;;24.58;41.15;102186.56;6301166;22;45348;-90
2022/03/24 16:31:44;;;;;;;;;31.67;27.33;;;;;24.47;41.39;102173.03;6299853;22;45297;-91
2022/03/24 16:34:10;;;;;;;;;25.33;23.67;;;;;24.37;41.33;102179.19;6300021;22;49942;-91
2022/03/24 16:36:35;;;;;;;;;29.33;23.67;;;;;24.30;41.09;102180.94;6306530;22;45274;-90
2022/03/24 16:39:07;;;;;;;;;26.33;21.33;;;;;24.30;41.78;102188.97;6313889;22;45269;-92
2022/03/24 16:41:33;;;;;;;;;26.33;22.67;;;;;24.13;42.21;102184.28;6308500;22;45352;-91
2022/03/24 16:43:58;;;;;;;;;27.00;22.67;;;;;24.08;42.13;102184.22;6305245;22;45562;-90
2022/03/24 16:46:24;;;;;;;;;25.00;21.00;;;;;24.05;41.90;102188.66;6305618;22;47089;-91
2022/03/24 16:48:50;;;;;;;;;30.33;24.33;;;;;23.93;42.39;102187.63;6328488;22;45317;-91
2022/03/24 16:51:16;;;;;;;;;28.33;24.00;;;;;23.86;42.76;102185.78;6306151;22;45353;-91
2022/03/24 16:53:42;;;;;;;;;25.25;23.75;;;;;23.74;42.65;102187.41;6307025;22;45574;-89
2022/03/24 16:56:09;;;;;;;;;20.67;19.33;;;;;23.69;42.82;102196.25;6304788;22;47109;-91
2022/03/24 16:58:37;;;;;;;;;17.00;16.00;;;;;23.62;43.06;102193.50;6306888;22;45261;-91
2022/03/24 17:01:03;;;;;;;;;19.00;18.00;;;;;23.50;42.85;102198.69;6309444;22;45302;-91
2022/03/24 17:03:30;;;;;;;;;25.00;23.00;;;;;23.39;42.90;102191.38;6306152;22;45232;-93
2022/03/24 17:05:55;;;;;;;;;21.33;18.33;;;;;23.35;43.25;102192.19;6304137;22;45376;-89
2022/03/24 17:08:22;;;;;;;;;28.00;23.67;;;;;23.24;43.15;102192.03;6327080;22;45292;-91
2022/03/24 17:10:47;;;;;;;;;20.00;18.67;;;;;23.11;43.32;102182.91;6301458;22;45404;-90
2022/03/24 17:13:13;;;;;;;;;22.00;21.33;;;;;23.13;43.25;102190.97;6325663;22;45299;-90
2022/03/24 17:15:38;;;;;;;;;26.33;24.67;;;;;23.08;43.45;102191.81;6301220;22;46508;-90
2022/03/24 17:18:03;;;;;;;;;25.33;22.33;;;;;23.04;43.44;102191.72;6299116;22;45745;-91
2022/03/24 17:20:29;;;;;;;;;24.67;21.00;;;;;22.97;43.34;102194.28;6299582;22;45324;-91
2022/03/24 17:22:54;;;;;;;;;28.33;23.00;;;;;22.87;43.50;102190.56;6300944;22;45492;-91
2022/03/24 17:25:19;;;;;;;;;29.50;26.75;;;;;22.79;43.62;102199.31;6300361;22;58090;-91
2022/03/24 17:27:46;;;;;;;;;27.00;22.33;;;;;22.80;43.89;102209.16;6301051;22;45620;-91
2022/03/24 17:30:15;;;;;;;;;22.00;20.33;;;;;22.68;43.39;102202.69;6298242;22;45399;-91
2022/03/24 17:32:46;;;;;;;;;24.33;21.00;;;;;22.68;43.54;102210.72;6325445;22;45398;-90
2022/03/24 17:35:13;;;;;;;;;26.33;24.67;;;;;22.58;43.23;102215.00;6296839;22;47949;-91
2022/03/24 17:37:40;;;;;;;;;24.33;22.00;;;;;22.51;43.63;102211.31;6299349;22;45306;-91
2022/03/24 17:40:06;;;;;;;;;22.00;18.67;;;;;22.43;43.70;102219.19;6299707;22;45438;-91
2022/03/24 17:42:32;;;;;;;;;23.00;19.33;;;;;22.35;43.88;102206.53;6326992;22;45381;-91
2022/03/24 17:44:57;;;;;;;;;26.33;20.67;;;;;22.30;43.90;102217.16;6299845;22;46909;-91
2022/03/24 17:47:22;;;;;;;;;27.67;23.00;;;;;22.23;43.70;102209.88;6300472;22;45264;-91
2022/03/24 17:49:48;;;;;;;;;25.67;23.67;;;;;22.19;44.04;102214.25;6300164;22;49816;-90
2022/03/24 17:52:13;;;;;;;;;29.00;20.33;;;;;22.10;44.44;102206.97;6300494;22;45498;-91
2022/03/24 17:54:39;;;;;;;;;26.00;22.00;;;;;22.03;44.49;102219.31;6299624;22;54746;-91
2022/03/24 17:57:04;;;;;;;;;23.33;19.33;;;;;21.97;44.72;102212.06;6302191;22;45265;-91
2022/03/24 17:59:30;;;;;;;;;21.67;21.33;;;;;21.88;44.98;102211.84;6325888;22;45426;-91
2022/03/24 18:01:55;;;;;;;;;25.33;22.00;;;;;21.82;44.94;102219.72;6302858;22;45338;-91
2022/03/24 18:04:21;;;;;;;;;23.67;22.00;;;;;21.74;45.23;102214.19;6301144;22;45901;-91
2022/03/24 18:06:46;;;;;;;;;25.00;22.67;;;;;21.65;45.57;102209.53;6300390;22;45358;-91
2022/03/24 18:09:11;;;;;;;;;22.00;19.67;;;;;21.61;45.43;102223.69;6302075;22;51298;-91
2022/03/24 18:11:37;;;;;;;;;25.00;23.25;;;;;21.55;46.08;102224.44;6303177;22;45169;-91
2022/03/24 18:14:03;;;;;;;;;25.67;21.67;;;;;21.46;46.08;102216.25;6301547;22;59109;-91
2022/03/24 18:16:29;;;;;;;;;23.00;21.33;;;;;21.42;45.80;102220.59;6303348;22;45268;-92
2022/03/24 18:18:54;;;;;;;;;25.67;20.33;;;;;21.31;46.21;102218.56;6299141;22;45278;-91
2022/03/24 18:21:19;;;;;;;;;22.33;21.00;;;;;21.30;46.34;102223.88;6303783;22;45422;-92
2022/03/24 18:23:45;;;;;;;;;27.67;19.67;;;;;21.23;46.80;102225.50;6300860;22;47843;-91